createdAt,value
2019-06-26T00:02:41.326Z,23.20
2019-06-26T00:07:46.450Z,23.00
2019-06-26T00:12:51.464Z,22.90
2019-06-26T00:17:56.325Z,23.00
2019-06-26T00:23:01.346Z,23.00
2019-06-26T00:28:06.202Z,22.70
2019-06-26T00:33:11.041Z,22.70
2019-06-26T00:38:15.907Z,22.70
2019-06-26T00:43:20.766Z,22.60
2019-06-26T00:48:25.585Z,22.60
2019-06-26T00:53:30.426Z,22.60
2019-06-26T00:58:35.292Z,22.60
2019-06-26T01:03:40.318Z,22.50
2019-06-26T01:08:45.351Z,22.50
2019-06-26T01:13:58.171Z,22.30
2019-06-26T01:18:58.290Z,22.20
2019-06-26T01:24:03.935Z,22.10
2019-06-26T01:29:09.139Z,22.10
2019-06-26T01:34:14.009Z,22.00
2019-06-26T01:39:19.255Z,22.00
2019-06-26T01:44:24.060Z,21.90
2019-06-26T01:49:29.305Z,21.80
2019-06-26T01:54:34.455Z,21.80
2019-06-26T01:59:39.276Z,21.70
2019-06-26T02:04:43.990Z,21.70
2019-06-26T02:09:49.112Z,21.60
2019-06-26T02:14:55.440Z,21.60
2019-06-26T02:20:00.349Z,21.50
2019-06-26T02:25:06.095Z,21.60
2019-06-26T02:30:10.985Z,21.50
2019-06-26T02:35:15.821Z,21.30
2019-06-26T02:40:21.679Z,21.30
2019-06-26T02:45:26.521Z,21.30
2019-06-26T02:50:31.359Z,21.20
2019-06-26T02:55:36.243Z,21.20
2019-06-26T03:00:41.124Z,21.20
2019-06-26T03:05:45.983Z,21.20
2019-06-26T03:10:50.949Z,21.30
2019-06-26T03:15:55.895Z,21.30
2019-06-26T03:21:00.693Z,21.30
2019-06-26T03:26:05.523Z,21.30
2019-06-26T03:31:10.402Z,21.30
2019-06-26T03:36:15.307Z,21.40
2019-06-26T03:41:20.194Z,21.40
2019-06-26T03:46:25.022Z,21.50
2019-06-26T03:51:29.900Z,21.60
2019-06-26T03:56:34.751Z,21.70
2019-06-26T04:01:39.734Z,21.90
2019-06-26T04:06:44.656Z,22.00
2019-06-26T04:11:49.601Z,22.10
2019-06-26T04:16:54.910Z,22.40
2019-06-26T04:21:59.886Z,22.50
2019-06-26T04:27:04.946Z,22.70
2019-06-26T04:32:09.908Z,22.90
2019-06-26T04:37:14.948Z,23.20
2019-06-26T04:42:19.895Z,23.40
2019-06-26T04:47:25.155Z,23.60
2019-06-26T04:52:30.200Z,23.80
2019-06-26T04:57:35.495Z,23.90
2019-06-26T05:02:40.428Z,24.10
2019-06-26T05:07:45.645Z,24.20
2019-06-26T05:12:50.680Z,24.30
2019-06-26T05:17:55.785Z,24.50
2019-06-26T05:23:00.702Z,24.70
2019-06-26T05:28:08.272Z,24.80
2019-06-26T05:33:12.340Z,24.80
2019-06-26T05:38:17.380Z,25.00
2019-06-26T05:43:22.327Z,25.20
2019-06-26T05:48:27.200Z,25.20
2019-06-26T05:53:32.346Z,25.40
2019-06-26T05:58:37.289Z,25.60
2019-06-26T06:03:42.242Z,25.80
2019-06-26T06:08:47.249Z,25.90
2019-06-26T06:13:52.325Z,26.10
2019-06-26T06:19:03.499Z,26.40
2019-06-26T06:24:10.735Z,26.60
2019-06-26T06:29:21.315Z,26.70
2019-06-26T06:34:26.397Z,26.90
2019-06-26T06:39:31.543Z,27.10
2019-06-26T06:44:36.591Z,27.10
2019-06-26T06:49:41.605Z,27.10
2019-06-26T06:54:46.732Z,27.40
2019-06-26T06:59:51.822Z,27.60
2019-06-26T07:04:57.118Z,27.60
2019-06-26T07:10:02.172Z,27.70
2019-06-26T07:15:08.850Z,27.80
2019-06-26T07:20:14.813Z,27.90
2019-06-26T07:25:19.867Z,28.10
2019-06-26T07:30:24.926Z,28.20
2019-06-26T07:35:29.941Z,28.30
2019-06-26T07:40:34.811Z,28.50
2019-06-26T07:45:40.008Z,28.80
2019-06-26T07:50:45.188Z,28.90
2019-06-26T07:55:50.200Z,29.00
2019-06-26T08:00:55.179Z,29.10
2019-06-26T08:06:01.842Z,29.20
2019-06-26T08:11:07.012Z,29.30
2019-06-26T08:16:12.057Z,29.60
2019-06-26T08:21:17.611Z,29.70
2019-06-26T08:26:22.752Z,29.70
2019-06-26T08:31:27.917Z,29.90
2019-06-26T08:36:32.983Z,30.10
2019-06-26T08:41:38.080Z,30.10
2019-06-26T08:46:43.096Z,30.00
2019-06-26T08:51:48.161Z,30.30
2019-06-26T08:56:53.072Z,30.30
2019-06-26T09:01:58.288Z,30.50
2019-06-26T09:07:03.174Z,30.40
2019-06-26T09:12:08.284Z,30.50
2019-06-26T09:17:13.575Z,30.50
2019-06-26T09:22:20.246Z,30.60
2019-06-26T09:27:25.408Z,30.80
2019-06-26T09:32:30.506Z,31.10
2019-06-26T09:37:35.638Z,31.20
2019-06-26T09:42:40.562Z,31.30
2019-06-26T09:47:45.823Z,31.60
2019-06-26T09:52:51.000Z,31.80
2019-06-26T09:57:56.146Z,32.20
2019-06-26T10:03:01.053Z,32.60
2019-06-26T10:08:05.966Z,33.00
2019-06-26T10:13:10.919Z,33.30
2019-06-26T10:18:16.103Z,33.60
2019-06-26T10:23:21.374Z,34.00
2019-06-26T10:28:26.398Z,34.50
2019-06-26T10:33:31.428Z,34.50
2019-06-26T10:38:36.499Z,34.50
2019-06-26T10:43:41.437Z,34.70
2019-06-26T10:48:46.647Z,34.70
2019-06-26T10:53:51.896Z,34.70
2019-06-26T10:58:56.831Z,35.00
2019-06-26T11:04:02.049Z,35.40
2019-06-26T11:09:08.698Z,35.70
2019-06-26T11:14:13.989Z,35.90
2019-06-26T11:19:18.915Z,36.00
2019-06-26T11:24:25.437Z,36.30
2019-06-26T11:29:30.672Z,36.60
2019-06-26T11:34:35.946Z,36.50
2019-06-26T11:39:40.909Z,36.50
2019-06-26T11:44:46.006Z,37.20
2019-06-26T11:49:59.867Z,37.90
2019-06-26T11:55:03.006Z,38.50
2019-06-26T12:00:08.770Z,38.40
2019-06-26T12:05:14.166Z,38.80
2019-06-26T12:10:19.502Z,40.10
2019-06-26T12:15:24.457Z,40.00
2019-06-26T12:20:29.553Z,40.70
2019-06-26T12:25:34.599Z,42.00
2019-06-26T12:30:40.261Z,41.90
2019-06-26T12:35:45.504Z,41.80
2019-06-26T12:40:50.588Z,42.70
2019-06-26T12:45:55.569Z,43.70
2019-06-26T12:51:00.551Z,43.10
2019-06-26T12:56:05.602Z,42.70
2019-06-26T13:01:10.666Z,43.10
2019-06-26T13:06:15.634Z,43.70
2019-06-26T13:11:20.500Z,44.40
2019-06-26T13:16:25.628Z,44.40
2019-06-26T13:21:30.553Z,45.40
2019-06-26T13:26:35.469Z,46.20
2019-06-26T13:31:40.320Z,47.20
2019-06-26T13:36:45.509Z,47.80
2019-06-26T13:41:53.811Z,48.70
2019-06-26T13:46:58.977Z,48.50
2019-06-26T13:52:03.913Z,47.90
2019-06-26T13:57:08.736Z,48.30
2019-06-26T14:02:13.632Z,49.40
2019-06-26T14:07:19.230Z,49.70
2019-06-26T14:12:24.153Z,49.60
2019-06-26T14:17:29.039Z,49.70
2019-06-26T14:22:33.806Z,50.50
2019-06-26T14:27:39.025Z,51.00
2019-06-26T14:32:44.073Z,49.90
2019-06-26T14:37:49.314Z,49.60
2019-06-26T14:42:54.527Z,48.20
2019-06-26T14:47:59.422Z,49.10
2019-06-26T14:53:04.441Z,48.50
2019-06-26T14:58:09.365Z,49.10
2019-06-26T15:03:14.418Z,48.20
2019-06-26T15:08:19.351Z,48.20
2019-06-26T15:13:24.171Z,48.70
2019-06-26T15:18:29.217Z,48.30
2019-06-26T15:23:34.087Z,49.10
2019-06-26T15:28:38.949Z,48.40
2019-06-26T15:33:44.368Z,48.60
2019-06-26T15:38:54.142Z,48.40
2019-06-26T15:43:59.126Z,48.30
2019-06-26T15:49:04.076Z,48.70
2019-06-26T15:54:11.973Z,49.00
2019-06-26T15:59:21.354Z,48.30
2019-06-26T16:04:27.174Z,48.20
2019-06-26T16:09:37.973Z,48.50
2019-06-26T16:14:43.699Z,49.30
2019-06-26T16:19:51.687Z,49.10
2019-06-26T16:25:00.289Z,46.90
2019-06-26T16:30:07.792Z,46.50
2019-06-26T16:35:15.909Z,46.50
2019-06-26T16:40:21.462Z,47.00
2019-06-26T16:45:26.341Z,47.60
2019-06-26T16:50:31.801Z,47.50
2019-06-26T16:55:42.277Z,47.30
2019-06-26T17:00:47.729Z,47.50
2019-06-26T17:05:52.604Z,47.80
2019-06-26T17:10:57.817Z,47.50
2019-06-26T17:16:02.949Z,46.00
2019-06-26T17:21:08.076Z,45.60
2019-06-26T17:26:13.098Z,44.00
2019-06-26T17:31:18.143Z,42.40
2019-06-26T17:36:23.512Z,41.20
2019-06-26T17:41:28.576Z,40.20
2019-06-26T17:46:33.560Z,39.20
2019-06-26T17:51:38.607Z,38.30
2019-06-26T17:56:43.625Z,37.90
2019-06-26T18:01:48.843Z,37.80
2019-06-26T18:06:54.118Z,37.50
2019-06-26T18:11:59.371Z,37.10
2019-06-26T18:17:17.945Z,36.70
2019-06-26T18:22:11.220Z,36.30
2019-06-26T18:27:16.436Z,36.20
2019-06-26T18:32:21.504Z,35.30
2019-06-26T18:37:26.363Z,33.50
2019-06-26T18:42:31.490Z,32.50
2019-06-26T18:47:38.230Z,32.10
2019-06-26T18:52:43.084Z,31.80
2019-06-26T18:57:47.981Z,31.50
2019-06-26T19:02:53.312Z,31.10
2019-06-26T19:07:59.886Z,30.90
2019-06-26T19:13:04.953Z,30.70
2019-06-26T19:18:10.134Z,30.40
2019-06-26T19:23:15.230Z,30.10
2019-06-26T19:28:23.118Z,30.00
2019-06-26T19:33:26.867Z,30.20
2019-06-26T19:38:31.878Z,30.70
2019-06-26T19:43:36.741Z,31.10
2019-06-26T19:48:41.592Z,31.30
2019-06-26T19:53:46.423Z,31.40
2019-06-26T19:58:51.285Z,31.40
2019-06-26T20:03:56.263Z,31.30
2019-06-26T20:09:01.146Z,31.20
2019-06-26T20:14:07.179Z,31.10
2019-06-26T20:19:11.976Z,31.00
2019-06-26T20:24:16.875Z,30.90
2019-06-26T20:29:21.632Z,30.80
2019-06-26T20:34:26.511Z,30.70
2019-06-26T20:39:31.345Z,30.50
2019-06-26T20:44:49.552Z,30.40
2019-06-26T20:50:06.187Z,30.20
2019-06-26T20:55:15.726Z,30.00
2019-06-26T21:00:33.443Z,29.80
2019-06-26T21:05:57.802Z,29.60
2019-06-26T21:11:16.308Z,29.40
2019-06-26T21:16:23.828Z,29.30
2019-06-26T21:21:35.053Z,29.10
2019-06-26T21:26:39.757Z,28.90
2019-06-26T21:31:45.581Z,28.80
2019-06-26T21:36:51.876Z,28.70
2019-06-26T21:41:57.289Z,28.60
2019-06-26T21:47:02.178Z,28.50
2019-06-26T21:52:06.913Z,28.30
2019-06-26T21:57:11.706Z,28.20
2019-06-26T22:02:18.598Z,28.10
2019-06-26T22:07:25.456Z,28.00
2019-06-26T22:12:31.942Z,27.90
2019-06-26T22:17:36.951Z,27.70
2019-06-26T22:22:42.101Z,27.60
2019-06-26T22:27:47.000Z,27.50
2019-06-26T22:32:51.867Z,27.40
2019-06-26T22:37:56.867Z,27.30
2019-06-26T22:43:01.638Z,27.10
2019-06-26T22:48:06.524Z,27.00
2019-06-26T22:53:11.550Z,26.80
2019-06-26T22:58:16.418Z,26.70
2019-06-26T23:03:21.346Z,26.60
2019-06-26T23:08:26.284Z,26.50
2019-06-26T23:13:31.066Z,26.40
2019-06-26T23:18:35.915Z,26.30
2019-06-26T23:23:40.768Z,26.20
2019-06-26T23:28:45.533Z,26.10
2019-06-26T23:33:50.420Z,26.10
2019-06-26T23:38:55.098Z,26.00
2019-06-26T23:43:59.914Z,25.90
2019-06-26T23:49:05.202Z,25.70
2019-06-26T23:54:09.935Z,25.50
2019-06-26T23:59:15.101Z,25.50
